| Temperature (°F) | Max | Average | Min |
|---|---|---|---|
| Max Temperature | 82 | 69.5 | 57 |
| Avg Temperature | 73 | 58.03 | 50.75 |
| Min Temperature | 68 | 47.97 | 39 |
| Precipitation (in) | Max | Average | Min | Sum |
|---|---|---|---|---|
| Precipitation | 0 | 0 | 0 | 0 |
| Dew Point (°F) | Max | Average | Min |
|---|---|---|---|
| Dew Point | 49.48 | 31.49 | 2.88 |
| Wind (mph) | Max | Average | Min |
|---|---|---|---|
| Wind | 32 | 15.53 | 9 |
| Gust Wind | 37 | 30.95 | 21 |
| Sea Level Pressure (in) | Max | Average | Min |
|---|---|---|---|
| Sea Level Pressure | 29.71 | 29.57 | 29.42 |
| Date | Temp High/Low | Dew Pt High/Low | Humidity | Wind | Max Wind | Wind Gust | Pressure | Precip. | Condition |
|---|---|---|---|---|---|---|---|---|---|
| 12/1/2020 | 77 °F / 46 °F | 39 °F / 14 °F | 27 % | 14 mph | - | 29.53 in | 0 in | ||
| 12/2/2020 | 81 °F / 46 °F | 23 °F / 5 °F | 16 % | 17 mph | - | 29.53 in | 0 in | ||
| 12/3/2020 | 72 °F / 50 °F | 45 °F / 1 °F | 18 % | 25 mph | - | 29.65 in | 0 in | ||
| 12/4/2020 | 72 °F / 39 °F | 36 °F / 3 °F | 22 % | 13 mph | - | 29.65 in | 0 in | ||
| 12/5/2020 | 82 °F / 46 °F | 45 °F / 0 °F | 29 % | 16 mph | - | 29.7 in | 0 in | ||
| 12/6/2020 | 72 °F / 48 °F | 52 °F / 1 °F | 43 % | 14 mph | - | 29.63 in | 0 in | ||
| 12/7/2020 | 75 °F / 45 °F | 46 °F / 7 °F | 29 % | 17 mph | - | 29.47 in | 0 in | ||
| 12/8/2020 | 79 °F / 57 °F | 34 °F / 7 °F | 12 % | 24 mph | - | 29.51 in | 0 in | ||
| 12/9/2020 | 73 °F / 48 °F | 52 °F / 16 °F | 49 % | 16 mph | - | 29.5 in | 0 in | ||
| 12/10/2020 | 64 °F / 46 °F | 46 °F / 36 °F | 61 % | 12 mph | - | 29.52 in | 0 in | ||
| 12/11/2020 | 63 °F / 45 °F | 48 °F / 39 °F | 73 % | 12 mph | - | 29.59 in | 0 in | ||
| 12/12/2020 | 64 °F / 45 °F | 54 °F / 39 °F | 81 % | 13 mph | - | 29.57 in | 0 in | ||
| 12/13/2020 | 68 °F / 45 °F | 52 °F / 16 °F | 54 % | 22 mph | - | 29.67 in | 0 in | ||
| 12/14/2020 | 61 °F / 48 °F | 54 °F / 32 °F | 77 % | 9 mph | - | 29.57 in | 0 in | ||
| 12/15/2020 | 68 °F / 46 °F | 45 °F / 19 °F | 49 % | 10 mph | - | 29.65 in | 0 in | ||
| 12/16/2020 | 72 °F / 46 °F | 45 °F / 12 °F | 32 % | 12 mph | - | 29.59 in | 0 in | ||
| 12/17/2020 | 63 °F / 45 °F | 55 °F / 23 °F | 66 % | 14 mph | - | 29.5 in | 0 in | ||
| 12/18/2020 | 64 °F / 46 °F | 50 °F / 25 °F | 72 % | 9 mph | - | 29.63 in | 0 in | ||
| 12/19/2020 | 73 °F / 52 °F | 37 °F / 18 °F | 28 % | 12 mph | - | 29.71 in | 0 in | ||
| 12/20/2020 | 79 °F / 45 °F | 32 °F / 14 °F | 23 % | 12 mph | - | 29.59 in | 0 in | ||
| 12/21/2020 | 81 °F / 52 °F | 28 °F / 14 °F | 20 % | 15 mph | - | 29.47 in | 0 in | ||
| 12/22/2020 | 68 °F / 46 °F | 52 °F / 21 °F | 57 % | 9 mph | - | 29.54 in | 0 in | ||
| 12/23/2020 | 73 °F / 41 °F | 48 °F / -2 °F | 37 % | 20 mph | - | 29.63 in | 0 in | ||
| 12/24/2020 | 70 °F / 61 °F | 19 °F / -2 °F | 9 % | 23 mph | - | 29.68 in | 0 in | ||
| 12/25/2020 | 73 °F / 50 °F | 43 °F / 5 °F | 29 % | 16 mph | - | 29.61 in | 0 in | ||
| 12/26/2020 | 66 °F / 45 °F | 54 °F / 28 °F | 64 % | 15 mph | - | 29.6 in | 0 in | ||
| 12/27/2020 | 63 °F / 48 °F | 52 °F / 45 °F | 78 % | 8 mph | - | 29.45 in | 0 in | ||
| 12/28/2020 | 59 °F / 50 °F | 52 °F / 45 °F | 83 % | 32 mph | - | 29.44 in | 0 in | ||
| 12/29/2020 | 63 °F / 46 °F | 50 °F / 41 °F | 82 % | 18 mph | - | 29.57 in | 0 in | ||
| 12/30/2020 | 66 °F / 41 °F | 45 °F / 16 °F | 59 % | 13 mph | - | 29.67 in | 0 in | ||
| 12/31/2020 | 61 °F / 46 °F | 50 °F / 32 °F | 71 % | 13 mph | - | 29.47 in | 0 in |